Aviation Digital Data Service (ADDS)

Output produced by METARs form (0840 UTC 21 October 2017)
found at http://www.aviationweather.gov/adds/metars/
 
METAR text: VGHS 210830Z 17010KT 2000 RA BKN008 FEW025CB OVC080 25/24 Q0997 TEMPO TSRA
Conditions at: VGHS (DHAKA , BD) observed 0830 UTC 21 October 2017
Temperature: 25.0°C (77°F)
Dewpoint: 24.0°C (75°F) [RH = 94%]
Pressure (altimeter): 29.44 inches Hg (997.0 mb)
Winds: from the S (170 degrees) at 12 MPH (10 knots; 5.2 m/s)
Visibility: 1.24 miles (2.00 km)
Ceiling: 800 feet AGL
Clouds: broken clouds at 800 feet AGL
few clouds at 2500 feet AGL
overcast cloud deck at 8000 feet AGL
Weather: RA  (rain)

METAR text: VGHS 210800Z 18013KT 2500 RA BKN008 FEW025CB OVC080 25/24 Q0997 TEMPO TSRA
Conditions at: VGHS (DHAKA , BD) observed 0800 UTC 21 October 2017
Temperature: 25.0°C (77°F)
Dewpoint: 24.0°C (75°F) [RH = 94%]
Pressure (altimeter): 29.44 inches Hg (997.0 mb)
Winds: from the S (180 degrees) at 15 MPH (13 knots; 6.8 m/s)
Visibility: 1.55 miles (2.49 km)
Ceiling: 800 feet AGL
Clouds: broken clouds at 800 feet AGL
few clouds at 2500 feet AGL
overcast cloud deck at 8000 feet AGL
Weather: RA  (rain)

METAR text: VGHS 210730Z 17012KT 2500 RA BKN009 FEW025CB OVC080 25/24 Q0998 TEMPO TSRA
Conditions at: VGHS (DHAKA , BD) observed 0730 UTC 21 October 2017
Temperature: 25.0°C (77°F)
Dewpoint: 24.0°C (75°F) [RH = 94%]
Pressure (altimeter): 29.47 inches Hg (998.0 mb)
Winds: from the S (170 degrees) at 14 MPH (12 knots; 6.2 m/s)
Visibility: 1.55 miles (2.49 km)
Ceiling: 900 feet AGL
Clouds: broken clouds at 900 feet AGL
few clouds at 2500 feet AGL
overcast cloud deck at 8000 feet AGL
Weather: RA  (rain)

METAR text: VGHS 210700Z 17010KT 2500 RA BKN009 FEW025CB OVC080 25/24 Q0998 TEMPO TSRA
Conditions at: VGHS (DHAKA , BD) observed 0700 UTC 21 October 2017
Temperature: 25.0°C (77°F)
Dewpoint: 24.0°C (75°F) [RH = 94%]
Pressure (altimeter): 29.47 inches Hg (998.0 mb)
Winds: from the S (170 degrees) at 12 MPH (10 knots; 5.2 m/s)
Visibility: 1.55 miles (2.49 km)
Ceiling: 900 feet AGL
Clouds: broken clouds at 900 feet AGL
few clouds at 2500 feet AGL
overcast cloud deck at 8000 feet AGL
Weather: RA  (rain)

METAR text: VGHS 210630Z 17012KT 2500 RA BKN009 FEW025CB OVC080 25/24 Q0999 TEMPO TSRA
Conditions at: VGHS (DHAKA , BD) observed 0630 UTC 21 October 2017
Temperature: 25.0°C (77°F)
Dewpoint: 24.0°C (75°F) [RH = 94%]
Pressure (altimeter): 29.50 inches Hg (999.0 mb)
Winds: from the S (170 degrees) at 14 MPH (12 knots; 6.2 m/s)
Visibility: 1.55 miles (2.49 km)
Ceiling: 900 feet AGL
Clouds: broken clouds at 900 feet AGL
few clouds at 2500 feet AGL
overcast cloud deck at 8000 feet AGL
Weather: RA  (rain)

METAR text: VGHS 210600Z 16010KT 2000 RA BKN008 FEW025CB OVC080 24/24 Q1000 TEMPO TSRA
Conditions at: VGHS (DHAKA , BD) observed 0600 UTC 21 October 2017
Temperature: 24.0°C (75°F)
Dewpoint: 24.0°C (75°F) [RH = 100%]
Pressure (altimeter): 29.53 inches Hg (1000.0 mb)
Winds: from the SSE (160 degrees) at 12 MPH (10 knots; 5.2 m/s)
Visibility: 1.24 miles (2.00 km)
Ceiling: 800 feet AGL
Clouds: broken clouds at 800 feet AGL
few clouds at 2500 feet AGL
overcast cloud deck at 8000 feet AGL
Weather: RA  (rain)

METAR text: VGHS 210530Z 12010KT 2000 RA BKN008 FEW025CB OVC080 24/23 Q1000 TEMPO TSRA
Conditions at: VGHS (DHAKA , BD) observed 0530 UTC 21 October 2017
Temperature: 24.0°C (75°F)
Dewpoint: 23.0°C (73°F) [RH = 94%]
Pressure (altimeter): 29.53 inches Hg (1000.0 mb)
Winds: from the ESE (120 degrees) at 12 MPH (10 knots; 5.2 m/s)
Visibility: 1.24 miles (2.00 km)
Ceiling: 800 feet AGL
Clouds: broken clouds at 800 feet AGL
few clouds at 2500 feet AGL
overcast cloud deck at 8000 feet AGL
Weather: RA  (rain)

METAR text: VGHS 210500Z 12012KT 2000 RA BKN008 FEW025CB OVC080 24/23 Q1001 TEMPO TSRA
Conditions at: VGHS (DHAKA , BD) observed 0500 UTC 21 October 2017
Temperature: 24.0°C (75°F)
Dewpoint: 23.0°C (73°F) [RH = 94%]
Pressure (altimeter): 29.56 inches Hg (1001.0 mb)
Winds: from the ESE (120 degrees) at 14 MPH (12 knots; 6.2 m/s)
Visibility: 1.24 miles (2.00 km)
Ceiling: 800 feet AGL
Clouds: broken clouds at 800 feet AGL
few clouds at 2500 feet AGL
overcast cloud deck at 8000 feet AGL
Weather: RA  (rain)

METAR text: VGHS 210430Z 11014KT 2000 RA BKN008 FEW025CB OVC080 24/23 Q1001 TEMPO TSRA
Conditions at: VGHS (DHAKA , BD) observed 0430 UTC 21 October 2017
Temperature: 24.0°C (75°F)
Dewpoint: 23.0°C (73°F) [RH = 94%]
Pressure (altimeter): 29.56 inches Hg (1001.0 mb)
Winds: from the ESE (110 degrees) at 16 MPH (14 knots; 7.3 m/s)
Visibility: 1.24 miles (2.00 km)
Ceiling: 800 feet AGL
Clouds: broken clouds at 800 feet AGL
few clouds at 2500 feet AGL
overcast cloud deck at 8000 feet AGL
Weather: RA  (rain)

METAR text: VGHS 210400Z 12014KT 2000 RA BKN008 FEW025CB OVC080 24/23 Q1002 TEMPO TSRA
Conditions at: VGHS (DHAKA , BD) observed 0400 UTC 21 October 2017
Temperature: 24.0°C (75°F)
Dewpoint: 23.0°C (73°F) [RH = 94%]
Pressure (altimeter): 29.59 inches Hg (1002.0 mb)
Winds: from the ESE (120 degrees) at 16 MPH (14 knots; 7.3 m/s)
Visibility: 1.24 miles (2.00 km)
Ceiling: 800 feet AGL
Clouds: broken clouds at 800 feet AGL
few clouds at 2500 feet AGL
overcast cloud deck at 8000 feet AGL
Weather: RA  (rain)

METAR text: VGHS 210330Z 09010KT 2000 RA BKN008 FEW025CB OVC080 25/24 Q1002 TEMPO TSRA
Conditions at: VGHS (DHAKA , BD) observed 0330 UTC 21 October 2017
Temperature: 25.0°C (77°F)
Dewpoint: 24.0°C (75°F) [RH = 94%]
Pressure (altimeter): 29.59 inches Hg (1002.0 mb)
Winds: from the E (90 degrees) at 12 MPH (10 knots; 5.2 m/s)
Visibility: 1.24 miles (2.00 km)
Ceiling: 800 feet AGL
Clouds: broken clouds at 800 feet AGL
few clouds at 2500 feet AGL
overcast cloud deck at 8000 feet AGL
Weather: RA  (rain)

METAR text: VGHS 210300Z 12013KT 2000 RA BKN008 FEW025CB OVC080 25/24 Q1002 TEMPO TSRA
Conditions at: VGHS (DHAKA , BD) observed 0300 UTC 21 October 2017
Temperature: 25.0°C (77°F)
Dewpoint: 24.0°C (75°F) [RH = 94%]
Pressure (altimeter): 29.59 inches Hg (1002.0 mb)
Winds: from the ESE (120 degrees) at 15 MPH (13 knots; 6.8 m/s)
Visibility: 1.24 miles (2.00 km)
Ceiling: 800 feet AGL
Clouds: broken clouds at 800 feet AGL
few clouds at 2500 feet AGL
overcast cloud deck at 8000 feet AGL
Weather: RA  (rain)

METAR text: VGHS 210230Z 09012KT 2000 RA BKN008 FEW025CB OVC080 25/24 Q1002 TEMPO TSRA
Conditions at: VGHS (DHAKA , BD) observed 0230 UTC 21 October 2017
Temperature: 25.0°C (77°F)
Dewpoint: 24.0°C (75°F) [RH = 94%]
Pressure (altimeter): 29.59 inches Hg (1002.0 mb)
Winds: from the E (90 degrees) at 14 MPH (12 knots; 6.2 m/s)
Visibility: 1.24 miles (2.00 km)
Ceiling: 800 feet AGL
Clouds: broken clouds at 800 feet AGL
few clouds at 2500 feet AGL
overcast cloud deck at 8000 feet AGL
Weather: RA  (rain)

METAR text: VGHS 210200Z 09018KT 2000 RA BKN008 FEW025CB OVC080 25/24 Q1003 TEMPO TSRA
Conditions at: VGHS (DHAKA , BD) observed 0200 UTC 21 October 2017
Temperature: 25.0°C (77°F)
Dewpoint: 24.0°C (75°F) [RH = 94%]
Pressure (altimeter): 29.62 inches Hg (1003.0 mb)
Winds: from the E (90 degrees) at 21 MPH (18 knots; 9.4 m/s)
Visibility: 1.24 miles (2.00 km)
Ceiling: 800 feet AGL
Clouds: broken clouds at 800 feet AGL
few clouds at 2500 feet AGL
overcast cloud deck at 8000 feet AGL
Weather: RA  (rain)

METAR text: VGHS 210130Z 10020KT 2000 RA BKN008 FEW025CB OVC080 25/24 Q1003 TEMPO TSRA
Conditions at: VGHS (DHAKA , BD) observed 0130 UTC 21 October 2017
Temperature: 25.0°C (77°F)
Dewpoint: 24.0°C (75°F) [RH = 94%]
Pressure (altimeter): 29.62 inches Hg (1003.0 mb)
Winds: from the E (100 degrees) at 23 MPH (20 knots; 10.4 m/s)
Visibility: 1.24 miles (2.00 km)
Ceiling: 800 feet AGL
Clouds: broken clouds at 800 feet AGL
few clouds at 2500 feet AGL
overcast cloud deck at 8000 feet AGL
Weather: RA  (rain)

METAR text: VGHS 210100Z 11022KT 2000 RA BKN008 FEW025CB OVC080 25/24 Q1002 TEMPO TSRA
Conditions at: VGHS (DHAKA , BD) observed 0100 UTC 21 October 2017
Temperature: 25.0°C (77°F)
Dewpoint: 24.0°C (75°F) [RH = 94%]
Pressure (altimeter): 29.59 inches Hg (1002.0 mb)
Winds: from the ESE (110 degrees) at 25 MPH (22 knots; 11.4 m/s)
Visibility: 1.24 miles (2.00 km)
Ceiling: 800 feet AGL
Clouds: broken clouds at 800 feet AGL
few clouds at 2500 feet AGL
overcast cloud deck at 8000 feet AGL
Weather: RA  (rain)

METAR text: VGHS 210030Z 10017KT 2000 RA BKN008 FEW025CB OVC080 24/23 Q1002 TEMPO TSRA
Conditions at: VGHS (DHAKA , BD) observed 0030 UTC 21 October 2017
Temperature: 24.0°C (75°F)
Dewpoint: 23.0°C (73°F) [RH = 94%]
Pressure (altimeter): 29.59 inches Hg (1002.0 mb)
Winds: from the E (100 degrees) at 20 MPH (17 knots; 8.8 m/s)
Visibility: 1.24 miles (2.00 km)
Ceiling: 800 feet AGL
Clouds: broken clouds at 800 feet AGL
few clouds at 2500 feet AGL
overcast cloud deck at 8000 feet AGL
Weather: RA  (rain)

METAR text: VGHS 210000Z 12018KT 2000 RA BKN008 FEW025CB OVC080 24/23 Q1002 TEMPO TSRA
Conditions at: VGHS (DHAKA , BD) observed 0000 UTC 21 October 2017
Temperature: 24.0°C (75°F)
Dewpoint: 23.0°C (73°F) [RH = 94%]
Pressure (altimeter): 29.59 inches Hg (1002.0 mb)
Winds: from the ESE (120 degrees) at 21 MPH (18 knots; 9.4 m/s)
Visibility: 1.24 miles (2.00 km)
Ceiling: 800 feet AGL
Clouds: broken clouds at 800 feet AGL
few clouds at 2500 feet AGL
overcast cloud deck at 8000 feet AGL
Weather: RA  (rain)

METAR text: VGHS 202330Z 12018KT 2000 RA BKN008 FEW025CB OVC080 24/23 Q1002 TEMPO TSRA
Conditions at: VGHS (DHAKA , BD) observed 2330 UTC 20 October 2017
Temperature: 24.0°C (75°F)
Dewpoint: 23.0°C (73°F) [RH = 94%]
Pressure (altimeter): 29.59 inches Hg (1002.0 mb)
Winds: from the ESE (120 degrees) at 21 MPH (18 knots; 9.4 m/s)
Visibility: 1.24 miles (2.00 km)
Ceiling: 800 feet AGL
Clouds: broken clouds at 800 feet AGL
few clouds at 2500 feet AGL
overcast cloud deck at 8000 feet AGL
Weather: RA  (rain)

METAR text: VGHS 202300Z 12014KT 2000 RA BKN008 FEW025CB OVC080 24/23 Q1003 TEMPO TSRA
Conditions at: VGHS (DHAKA , BD) observed 2300 UTC 20 October 2017
Temperature: 24.0°C (75°F)
Dewpoint: 23.0°C (73°F) [RH = 94%]
Pressure (altimeter): 29.62 inches Hg (1003.0 mb)
Winds: from the ESE (120 degrees) at 16 MPH (14 knots; 7.3 m/s)
Visibility: 1.24 miles (2.00 km)
Ceiling: 800 feet AGL
Clouds: broken clouds at 800 feet AGL
few clouds at 2500 feet AGL
overcast cloud deck at 8000 feet AGL
Weather: RA  (rain)

METAR text: VGHS 202230Z 09022KT 2000 RA BKN008 FEW025CB OVC080 24/23 Q1003 TEMPO TSRA
Conditions at: VGHS (DHAKA , BD) observed 2230 UTC 20 October 2017
Temperature: 24.0°C (75°F)
Dewpoint: 23.0°C (73°F) [RH = 94%]
Pressure (altimeter): 29.62 inches Hg (1003.0 mb)
Winds: from the E (90 degrees) at 25 MPH (22 knots; 11.4 m/s)
Visibility: 1.24 miles (2.00 km)
Ceiling: 800 feet AGL
Clouds: broken clouds at 800 feet AGL
few clouds at 2500 feet AGL
overcast cloud deck at 8000 feet AGL
Weather: RA  (rain)

METAR text: VGHS 202200Z 07022KT 2000 RA BKN008 FEW025CB OVC080 24/23 Q1003 TEMPO TSRA
Conditions at: VGHS (DHAKA , BD) observed 2200 UTC 20 October 2017
Temperature: 24.0°C (75°F)
Dewpoint: 23.0°C (73°F) [RH = 94%]
Pressure (altimeter): 29.62 inches Hg (1003.0 mb)
Winds: from the ENE (70 degrees) at 25 MPH (22 knots; 11.4 m/s)
Visibility: 1.24 miles (2.00 km)
Ceiling: 800 feet AGL
Clouds: broken clouds at 800 feet AGL
few clouds at 2500 feet AGL
overcast cloud deck at 8000 feet AGL
Weather: RA  (rain)

METAR text: VGHS 202130Z 08018KT 2000 RA BKN008 FEW025CB OVC080 24/23 Q1003 TEMPO TSRA
Conditions at: VGHS (DHAKA , BD) observed 2130 UTC 20 October 2017
Temperature: 24.0°C (75°F)
Dewpoint: 23.0°C (73°F) [RH = 94%]
Pressure (altimeter): 29.62 inches Hg (1003.0 mb)
Winds: from the E (80 degrees) at 21 MPH (18 knots; 9.4 m/s)
Visibility: 1.24 miles (2.00 km)
Ceiling: 800 feet AGL
Clouds: broken clouds at 800 feet AGL
few clouds at 2500 feet AGL
overcast cloud deck at 8000 feet AGL
Weather: RA  (rain)

METAR text: VGHS 202100Z 08015KT 2000 RA BKN008 FEW025CB OVC080 24/23 Q1004 TEMPO TSRA
Conditions at: VGHS (DHAKA , BD) observed 2100 UTC 20 October 2017
Temperature: 24.0°C (75°F)
Dewpoint: 23.0°C (73°F) [RH = 94%]
Pressure (altimeter): 29.65 inches Hg (1004.0 mb)
Winds: from the E (80 degrees) at 17 MPH (15 knots; 7.8 m/s)
Visibility: 1.24 miles (2.00 km)
Ceiling: 800 feet AGL
Clouds: broken clouds at 800 feet AGL
few clouds at 2500 feet AGL
overcast cloud deck at 8000 feet AGL
Weather: RA  (rain)

METAR text: VGHS 202030Z 12016KT 2000 RA BKN008 FEW025CB OVC080 24/23 Q1004 TEMPO TSRA
Conditions at: VGHS (DHAKA , BD) observed 2030 UTC 20 October 2017
Temperature: 24.0°C (75°F)
Dewpoint: 23.0°C (73°F) [RH = 94%]
Pressure (altimeter): 29.65 inches Hg (1004.0 mb)
Winds: from the ESE (120 degrees) at 18 MPH (16 knots; 8.3 m/s)
Visibility: 1.24 miles (2.00 km)
Ceiling: 800 feet AGL
Clouds: broken clouds at 800 feet AGL
few clouds at 2500 feet AGL
overcast cloud deck at 8000 feet AGL
Weather: RA  (rain)

METAR text: VGHS 202000Z 09012KT 2000 RA BKN008 FEW025CB OVC080 24/23 Q1005 TEMPO TSRA
Conditions at: VGHS (DHAKA , BD) observed 2000 UTC 20 October 2017
Temperature: 24.0°C (75°F)
Dewpoint: 23.0°C (73°F) [RH = 94%]
Pressure (altimeter): 29.68 inches Hg (1005.0 mb)
Winds: from the E (90 degrees) at 14 MPH (12 knots; 6.2 m/s)
Visibility: 1.24 miles (2.00 km)
Ceiling: 800 feet AGL
Clouds: broken clouds at 800 feet AGL
few clouds at 2500 feet AGL
overcast cloud deck at 8000 feet AGL
Weather: RA  (rain)

METAR text: VGHS 201930Z 08012KT 2000 RA BKN008 FEW025CB OVC080 24/23 Q1005 TEMPO TSRA
Conditions at: VGHS (DHAKA , BD) observed 1930 UTC 20 October 2017
Temperature: 24.0°C (75°F)
Dewpoint: 23.0°C (73°F) [RH = 94%]
Pressure (altimeter): 29.68 inches Hg (1005.0 mb)
Winds: from the E (80 degrees) at 14 MPH (12 knots; 6.2 m/s)
Visibility: 1.24 miles (2.00 km)
Ceiling: 800 feet AGL
Clouds: broken clouds at 800 feet AGL
few clouds at 2500 feet AGL
overcast cloud deck at 8000 feet AGL
Weather: RA  (rain)

METAR text: VGHS 201900Z 10016KT 2000 RA BKN008 FEW025 OVC080 24/23 Q1006 TEMPO TSRA
Conditions at: VGHS (DHAKA , BD) observed 1900 UTC 20 October 2017
Temperature: 24.0°C (75°F)
Dewpoint: 23.0°C (73°F) [RH = 94%]
Pressure (altimeter): 29.70 inches Hg (1006.0 mb)
Winds: from the E (100 degrees) at 18 MPH (16 knots; 8.3 m/s)
Visibility: 1.24 miles (2.00 km)
Ceiling: 800 feet AGL
Clouds: broken clouds at 800 feet AGL
few clouds at 2500 feet AGL
overcast cloud deck at 8000 feet AGL
Weather: RA  (rain)

METAR text: VGHS 201830Z 09015KT 2000 RA BKN008 FEW025 OVC080 24/23 Q1006 TEMPO TSRA
Conditions at: VGHS (DHAKA , BD) observed 1830 UTC 20 October 2017
Temperature: 24.0°C (75°F)
Dewpoint: 23.0°C (73°F) [RH = 94%]
Pressure (altimeter): 29.70 inches Hg (1006.0 mb)
Winds: from the E (90 degrees) at 17 MPH (15 knots; 7.8 m/s)
Visibility: 1.24 miles (2.00 km)
Ceiling: 800 feet AGL
Clouds: broken clouds at 800 feet AGL
few clouds at 2500 feet AGL
overcast cloud deck at 8000 feet AGL
Weather: RA  (rain)

METAR text: VGHS 201800Z 08018KT 2000 RA BKN008 FEW025CB OVC080 24/23 Q1006 TEMPO TSRA
Conditions at: VGHS (DHAKA , BD) observed 1800 UTC 20 October 2017
Temperature: 24.0°C (75°F)
Dewpoint: 23.0°C (73°F) [RH = 94%]
Pressure (altimeter): 29.70 inches Hg (1006.0 mb)
Winds: from the E (80 degrees) at 21 MPH (18 knots; 9.4 m/s)
Visibility: 1.24 miles (2.00 km)
Ceiling: 800 feet AGL
Clouds: broken clouds at 800 feet AGL
few clouds at 2500 feet AGL
overcast cloud deck at 8000 feet AGL
Weather: RA  (rain)

METAR text: VGHS 201730Z 09012KT 2000 RA BKN008 FEW025CB OVC080 24/23 Q1007 TEMPO TSRA
Conditions at: VGHS (DHAKA , BD) observed 1730 UTC 20 October 2017
Temperature: 24.0°C (75°F)
Dewpoint: 23.0°C (73°F) [RH = 94%]
Pressure (altimeter): 29.73 inches Hg (1007.0 mb)
Winds: from the E (90 degrees) at 14 MPH (12 knots; 6.2 m/s)
Visibility: 1.24 miles (2.00 km)
Ceiling: 800 feet AGL
Clouds: broken clouds at 800 feet AGL
few clouds at 2500 feet AGL
overcast cloud deck at 8000 feet AGL
Weather: RA  (rain)

METAR text: VGHS 201700Z 11010KT 2000 RA BKN008 FEW025CB OVC080 24/23 Q1007 TEMPO TSRA
Conditions at: VGHS (DHAKA , BD) observed 1700 UTC 20 October 2017
Temperature: 24.0°C (75°F)
Dewpoint: 23.0°C (73°F) [RH = 94%]
Pressure (altimeter): 29.73 inches Hg (1007.0 mb)
Winds: from the ESE (110 degrees) at 12 MPH (10 knots; 5.2 m/s)
Visibility: 1.24 miles (2.00 km)
Ceiling: 800 feet AGL
Clouds: broken clouds at 800 feet AGL
few clouds at 2500 feet AGL
overcast cloud deck at 8000 feet AGL
Weather: RA  (rain)

METAR text: VGHS 201630Z 09012KT 2000 RA BKN008 FEW025CB OVC080 24/23 Q1008 TEMPO TSRA
Conditions at: VGHS (DHAKA , BD) observed 1630 UTC 20 October 2017
Temperature: 24.0°C (75°F)
Dewpoint: 23.0°C (73°F) [RH = 94%]
Pressure (altimeter): 29.76 inches Hg (1008.0 mb)
Winds: from the E (90 degrees) at 14 MPH (12 knots; 6.2 m/s)
Visibility: 1.24 miles (2.00 km)
Ceiling: 800 feet AGL
Clouds: broken clouds at 800 feet AGL
few clouds at 2500 feet AGL
overcast cloud deck at 8000 feet AGL
Weather: RA  (rain)

METAR text: VGHS 201600Z 11010KT 2000 RA BKN008 FEW025CB OVC080 24/23 Q1008 TEMPO TSRA
Conditions at: VGHS (DHAKA , BD) observed 1600 UTC 20 October 2017
Temperature: 24.0°C (75°F)
Dewpoint: 23.0°C (73°F) [RH = 94%]
Pressure (altimeter): 29.76 inches Hg (1008.0 mb)
Winds: from the ESE (110 degrees) at 12 MPH (10 knots; 5.2 m/s)
Visibility: 1.24 miles (2.00 km)
Ceiling: 800 feet AGL
Clouds: broken clouds at 800 feet AGL
few clouds at 2500 feet AGL
overcast cloud deck at 8000 feet AGL
Weather: RA  (rain)

METAR text: VGHS 201530Z 12006KT 2000 RA BKN008 FEW025CB OVC080 24/23 Q1009 TEMPO TSRA
Conditions at: VGHS (DHAKA , BD) observed 1530 UTC 20 October 2017
Temperature: 24.0°C (75°F)
Dewpoint: 23.0°C (73°F) [RH = 94%]
Pressure (altimeter): 29.79 inches Hg (1009.0 mb)
Winds: from the ESE (120 degrees) at 7 MPH (6 knots; 3.1 m/s)
Visibility: 1.24 miles (2.00 km)
Ceiling: 800 feet AGL
Clouds: broken clouds at 800 feet AGL
few clouds at 2500 feet AGL
overcast cloud deck at 8000 feet AGL
Weather: RA  (rain)

METAR text: VGHS 201500Z 10010KT 2000 RA BKN008 FEW025CB OVC080 24/23 Q1008 TEMPO TSRA
Conditions at: VGHS (DHAKA , BD) observed 1500 UTC 20 October 2017
Temperature: 24.0°C (75°F)
Dewpoint: 23.0°C (73°F) [RH = 94%]
Pressure (altimeter): 29.76 inches Hg (1008.0 mb)
Winds: from the E (100 degrees) at 12 MPH (10 knots; 5.2 m/s)
Visibility: 1.24 miles (2.00 km)
Ceiling: 800 feet AGL
Clouds: broken clouds at 800 feet AGL
few clouds at 2500 feet AGL
overcast cloud deck at 8000 feet AGL
Weather: RA  (rain)

METAR text: VGHS 201430Z 09012KT 2000 RA BKN008 FEW025CB OVC080 24/23 Q1008 TEMPO TSRA
Conditions at: VGHS (DHAKA , BD) observed 1430 UTC 20 October 2017
Temperature: 24.0°C (75°F)
Dewpoint: 23.0°C (73°F) [RH = 94%]
Pressure (altimeter): 29.76 inches Hg (1008.0 mb)
Winds: from the E (90 degrees) at 14 MPH (12 knots; 6.2 m/s)
Visibility: 1.24 miles (2.00 km)
Ceiling: 800 feet AGL
Clouds: broken clouds at 800 feet AGL
few clouds at 2500 feet AGL
overcast cloud deck at 8000 feet AGL
Weather: RA  (rain)

METAR text: VGHS 201400Z 11014KT 2000 RA BKN008 FEW025CB OVC080 24/23 Q1008 TEMPO TSRA
Conditions at: VGHS (DHAKA , BD) observed 1400 UTC 20 October 2017
Temperature: 24.0°C (75°F)
Dewpoint: 23.0°C (73°F) [RH = 94%]
Pressure (altimeter): 29.76 inches Hg (1008.0 mb)
Winds: from the ESE (110 degrees) at 16 MPH (14 knots; 7.3 m/s)
Visibility: 1.24 miles (2.00 km)
Ceiling: 800 feet AGL
Clouds: broken clouds at 800 feet AGL
few clouds at 2500 feet AGL
overcast cloud deck at 8000 feet AGL
Weather: RA  (rain)

METAR text: VGHS 201330Z 08014KT 2000 RA BKN008 FEW025CB OVC080 24/23 Q1008 TEMPO TSRA
Conditions at: VGHS (DHAKA , BD) observed 1330 UTC 20 October 2017
Temperature: 24.0°C (75°F)
Dewpoint: 23.0°C (73°F) [RH = 94%]
Pressure (altimeter): 29.76 inches Hg (1008.0 mb)
Winds: from the E (80 degrees) at 16 MPH (14 knots; 7.3 m/s)
Visibility: 1.24 miles (2.00 km)
Ceiling: 800 feet AGL
Clouds: broken clouds at 800 feet AGL
few clouds at 2500 feet AGL
overcast cloud deck at 8000 feet AGL
Weather: RA  (rain)

METAR text: VGHS 201300Z 08013KT 2000 RA BKN008 FEW025CB OVC080 24/23 Q1007 TEMPO TSRA
Conditions at: VGHS (DHAKA , BD) observed 1300 UTC 20 October 2017
Temperature: 24.0°C (75°F)
Dewpoint: 23.0°C (73°F) [RH = 94%]
Pressure (altimeter): 29.73 inches Hg (1007.0 mb)
Winds: from the E (80 degrees) at 15 MPH (13 knots; 6.8 m/s)
Visibility: 1.24 miles (2.00 km)
Ceiling: 800 feet AGL
Clouds: broken clouds at 800 feet AGL
few clouds at 2500 feet AGL
overcast cloud deck at 8000 feet AGL
Weather: RA  (rain)

METAR text: VGHS 201230Z 10012KT 2000 RA BKN008 FEW025CB OVC080 24/23 Q1007 TEMPO TSRA
Conditions at: VGHS (DHAKA , BD) observed 1230 UTC 20 October 2017
Temperature: 24.0°C (75°F)
Dewpoint: 23.0°C (73°F) [RH = 94%]
Pressure (altimeter): 29.73 inches Hg (1007.0 mb)
Winds: from the E (100 degrees) at 14 MPH (12 knots; 6.2 m/s)
Visibility: 1.24 miles (2.00 km)
Ceiling: 800 feet AGL
Clouds: broken clouds at 800 feet AGL
few clouds at 2500 feet AGL
overcast cloud deck at 8000 feet AGL
Weather: RA  (rain)

METAR text: VGHS 201200Z 09009KT 2000 RA BKN008 FEW025CB OVC080 24/23 Q1007 TEMPO TSRA
Conditions at: VGHS (DHAKA , BD) observed 1200 UTC 20 October 2017
Temperature: 24.0°C (75°F)
Dewpoint: 23.0°C (73°F) [RH = 94%]
Pressure (altimeter): 29.73 inches Hg (1007.0 mb)
Winds: from the E (90 degrees) at 10 MPH (9 knots; 4.7 m/s)
Visibility: 1.24 miles (2.00 km)
Ceiling: 800 feet AGL
Clouds: broken clouds at 800 feet AGL
few clouds at 2500 feet AGL
overcast cloud deck at 8000 feet AGL
Weather: RA  (rain)

METAR text: VGHS 201130Z 11011KT 2000 RA BKN008 FEW025CB OVC080 24/23 Q1007 TEMPO TSRA
Conditions at: VGHS (DHAKA , BD) observed 1130 UTC 20 October 2017
Temperature: 24.0°C (75°F)
Dewpoint: 23.0°C (73°F) [RH = 94%]
Pressure (altimeter): 29.73 inches Hg (1007.0 mb)
Winds: from the ESE (110 degrees) at 13 MPH (11 knots; 5.7 m/s)
Visibility: 1.24 miles (2.00 km)
Ceiling: 800 feet AGL
Clouds: broken clouds at 800 feet AGL
few clouds at 2500 feet AGL
overcast cloud deck at 8000 feet AGL
Weather: RA  (rain)

METAR text: VGHS 201100Z 08012KT 2000 RA BKN008 FEW025CB OVC080 24/23 Q1007 TEMPO TSRA
Conditions at: VGHS (DHAKA , BD) observed 1100 UTC 20 October 2017
Temperature: 24.0°C (75°F)
Dewpoint: 23.0°C (73°F) [RH = 94%]
Pressure (altimeter): 29.73 inches Hg (1007.0 mb)
Winds: from the E (80 degrees) at 14 MPH (12 knots; 6.2 m/s)
Visibility: 1.24 miles (2.00 km)
Ceiling: 800 feet AGL
Clouds: broken clouds at 800 feet AGL
few clouds at 2500 feet AGL
overcast cloud deck at 8000 feet AGL
Weather: RA  (rain)

METAR text: VGHS 201030Z 09013KT 2000 RA BKN008 FEW025CB OVC080 24/23 Q1007 TEMPO TSRA
Conditions at: VGHS (DHAKA , BD) observed 1030 UTC 20 October 2017
Temperature: 24.0°C (75°F)
Dewpoint: 23.0°C (73°F) [RH = 94%]
Pressure (altimeter): 29.73 inches Hg (1007.0 mb)
Winds: from the E (90 degrees) at 15 MPH (13 knots; 6.8 m/s)
Visibility: 1.24 miles (2.00 km)
Ceiling: 800 feet AGL
Clouds: broken clouds at 800 feet AGL
few clouds at 2500 feet AGL
overcast cloud deck at 8000 feet AGL
Weather: RA  (rain)

METAR text: VGHS 201000Z 09012KT 2000 RA BKN008 FEW025CB OVC080 24/23 Q1007 TEMPO TSRA
Conditions at: VGHS (DHAKA , BD) observed 1000 UTC 20 October 2017
Temperature: 24.0°C (75°F)
Dewpoint: 23.0°C (73°F) [RH = 94%]
Pressure (altimeter): 29.73 inches Hg (1007.0 mb)
Winds: from the E (90 degrees) at 14 MPH (12 knots; 6.2 m/s)
Visibility: 1.24 miles (2.00 km)
Ceiling: 800 feet AGL
Clouds: broken clouds at 800 feet AGL
few clouds at 2500 feet AGL
overcast cloud deck at 8000 feet AGL
Weather: RA  (rain)

METAR text: VGHS 200930Z 11010KT 2000 RA BKN008 FEW025CB OVC080 24/23 Q1007 TEMPO TSRA
Conditions at: VGHS (DHAKA , BD) observed 0930 UTC 20 October 2017
Temperature: 24.0°C (75°F)
Dewpoint: 23.0°C (73°F) [RH = 94%]
Pressure (altimeter): 29.73 inches Hg (1007.0 mb)
Winds: from the ESE (110 degrees) at 12 MPH (10 knots; 5.2 m/s)
Visibility: 1.24 miles (2.00 km)
Ceiling: 800 feet AGL
Clouds: broken clouds at 800 feet AGL
few clouds at 2500 feet AGL
overcast cloud deck at 8000 feet AGL
Weather: RA  (rain)

METAR text: VGHS 200900Z 12012KT 2000 RA BKN008 FEW025CB OVC080 24/23 Q1007 TEMPO TSRA
Conditions at: VGHS (DHAKA , BD) observed 0900 UTC 20 October 2017
Temperature: 24.0°C (75°F)
Dewpoint: 23.0°C (73°F) [RH = 94%]
Pressure (altimeter): 29.73 inches Hg (1007.0 mb)
Winds: from the ESE (120 degrees) at 14 MPH (12 knots; 6.2 m/s)
Visibility: 1.24 miles (2.00 km)
Ceiling: 800 feet AGL
Clouds: broken clouds at 800 feet AGL
few clouds at 2500 feet AGL
overcast cloud deck at 8000 feet AGL
Weather: RA  (rain)

METAR text: VGHS 200830Z 09013KT 2000 RA BKN008 FEW025CB OVC080 24/23 Q1007 TEMPO TSRA
Conditions at: VGHS (DHAKA , BD) observed 0830 UTC 20 October 2017
Temperature: 24.0°C (75°F)
Dewpoint: 23.0°C (73°F) [RH = 94%]
Pressure (altimeter): 29.73 inches Hg (1007.0 mb)
Winds: from the E (90 degrees) at 15 MPH (13 knots; 6.8 m/s)
Visibility: 1.24 miles (2.00 km)
Ceiling: 800 feet AGL
Clouds: broken clouds at 800 feet AGL
few clouds at 2500 feet AGL
overcast cloud deck at 8000 feet AGL
Weather: RA  (rain)

METAR text: VGHS 200800Z 09012KT 2000 RA BKN008 FEW025CB OVC080 24/23 Q1007 TEMPO TSRA
Conditions at: VGHS (DHAKA , BD) observed 0800 UTC 20 October 2017
Temperature: 24.0°C (75°F)
Dewpoint: 23.0°C (73°F) [RH = 94%]
Pressure (altimeter): 29.73 inches Hg (1007.0 mb)
Winds: from the E (90 degrees) at 14 MPH (12 knots; 6.2 m/s)
Visibility: 1.24 miles (2.00 km)
Ceiling: 800 feet AGL
Clouds: broken clouds at 800 feet AGL
few clouds at 2500 feet AGL
overcast cloud deck at 8000 feet AGL
Weather: RA  (rain)

METAR text: VGHS 200730Z 09012KT 2000 RA BKN008 FEW025CB OVC080 24/23 Q1008 TEMPO TSRA
Conditions at: VGHS (DHAKA , BD) observed 0730 UTC 20 October 2017
Temperature: 24.0°C (75°F)
Dewpoint: 23.0°C (73°F) [RH = 94%]
Pressure (altimeter): 29.76 inches Hg (1008.0 mb)
Winds: from the E (90 degrees) at 14 MPH (12 knots; 6.2 m/s)
Visibility: 1.24 miles (2.00 km)
Ceiling: 800 feet AGL
Clouds: broken clouds at 800 feet AGL
few clouds at 2500 feet AGL
overcast cloud deck at 8000 feet AGL
Weather: RA  (rain)

METAR text: VGHS 200700Z 09010KT 2000 RA BKN008 FEW025CB OVC080 24/23 Q1009 TEMPO TSRA
Conditions at: VGHS (DHAKA , BD) observed 0700 UTC 20 October 2017
Temperature: 24.0°C (75°F)
Dewpoint: 23.0°C (73°F) [RH = 94%]
Pressure (altimeter): 29.79 inches Hg (1009.0 mb)
Winds: from the E (90 degrees) at 12 MPH (10 knots; 5.2 m/s)
Visibility: 1.24 miles (2.00 km)
Ceiling: 800 feet AGL
Clouds: broken clouds at 800 feet AGL
few clouds at 2500 feet AGL
overcast cloud deck at 8000 feet AGL
Weather: RA  (rain)

METAR text: VGHS 200630Z 09008KT 2500 RA BKN008 FEW025CB OVC080 24/23 Q1009 TEMPO TSRA
Conditions at: VGHS (DHAKA , BD) observed 0630 UTC 20 October 2017
Temperature: 24.0°C (75°F)
Dewpoint: 23.0°C (73°F) [RH = 94%]
Pressure (altimeter): 29.79 inches Hg (1009.0 mb)
Winds: from the E (90 degrees) at 9 MPH (8 knots; 4.2 m/s)
Visibility: 1.55 miles (2.49 km)
Ceiling: 800 feet AGL
Clouds: broken clouds at 800 feet AGL
few clouds at 2500 feet AGL
overcast cloud deck at 8000 feet AGL
Weather: RA  (rain)

METAR text: VGHS 200600Z 12008KT 2500 RA BKN008 FEW025CB OVC080 24/23 Q1010 TEMPO TSRA
Conditions at: VGHS (DHAKA , BD) observed 0600 UTC 20 October 2017
Temperature: 24.0°C (75°F)
Dewpoint: 23.0°C (73°F) [RH = 94%]
Pressure (altimeter): 29.82 inches Hg (1010.0 mb)
Winds: from the ESE (120 degrees) at 9 MPH (8 knots; 4.2 m/s)
Visibility: 1.55 miles (2.49 km)
Ceiling: 800 feet AGL
Clouds: broken clouds at 800 feet AGL
few clouds at 2500 feet AGL
overcast cloud deck at 8000 feet AGL
Weather: RA  (rain)

METAR text: VGHS 200530Z 13010KT 2500 RA BKN008 FEW025CB OVC080 24/23 Q1011 TEMPO TSRA
Conditions at: VGHS (DHAKA , BD) observed 0530 UTC 20 October 2017
Temperature: 24.0°C (75°F)
Dewpoint: 23.0°C (73°F) [RH = 94%]
Pressure (altimeter): 29.85 inches Hg (1011.0 mb)
Winds: from the SE (130 degrees) at 12 MPH (10 knots; 5.2 m/s)
Visibility: 1.55 miles (2.49 km)
Ceiling: 800 feet AGL
Clouds: broken clouds at 800 feet AGL
few clouds at 2500 feet AGL
overcast cloud deck at 8000 feet AGL
Weather: RA  (rain)

METAR text: VGHS 200500Z 12010KT 3200 RA BKN009 FEW025CB OVC090 25/24 Q1011 TEMPO TSRA
Conditions at: VGHS (DHAKA , BD) observed 0500 UTC 20 October 2017
Temperature: 25.0°C (77°F)
Dewpoint: 24.0°C (75°F) [RH = 94%]
Pressure (altimeter): 29.85 inches Hg (1011.0 mb)
Winds: from the ESE (120 degrees) at 12 MPH (10 knots; 5.2 m/s)
Visibility: 1.99 miles (3.20 km)
Ceiling: 900 feet AGL
Clouds: broken clouds at 900 feet AGL
few clouds at 2500 feet AGL
overcast cloud deck at 9000 feet AGL
Weather: RA  (rain)

METAR text: VGHS 200430Z 12010KT 3200 RA BKN009 FEW025CB OVC090 25/24 Q1011 TEMPO TSRA
Conditions at: VGHS (DHAKA , BD) observed 0430 UTC 20 October 2017
Temperature: 25.0°C (77°F)
Dewpoint: 24.0°C (75°F) [RH = 94%]
Pressure (altimeter): 29.85 inches Hg (1011.0 mb)
Winds: from the ESE (120 degrees) at 12 MPH (10 knots; 5.2 m/s)
Visibility: 1.99 miles (3.20 km)
Ceiling: 900 feet AGL
Clouds: broken clouds at 900 feet AGL
few clouds at 2500 feet AGL
overcast cloud deck at 9000 feet AGL
Weather: RA  (rain)

METAR text: VGHS 200400Z 16006KT 3200 RA BKN009 FEW025CB OVC090 25/24 Q1011 TEMPO TSRA
Conditions at: VGHS (DHAKA , BD) observed 0400 UTC 20 October 2017
Temperature: 25.0°C (77°F)
Dewpoint: 24.0°C (75°F) [RH = 94%]
Pressure (altimeter): 29.85 inches Hg (1011.0 mb)
Winds: from the SSE (160 degrees) at 7 MPH (6 knots; 3.1 m/s)
Visibility: 1.99 miles (3.20 km)
Ceiling: 900 feet AGL
Clouds: broken clouds at 900 feet AGL
few clouds at 2500 feet AGL
overcast cloud deck at 9000 feet AGL
Weather: RA  (rain)

METAR text: VGHS 200330Z 12008KT 3200 RA BKN009 FEW025CB OVC090 25/24 Q1011 TEMPO TSRA
Conditions at: VGHS (DHAKA , BD) observed 0330 UTC 20 October 2017
Temperature: 25.0°C (77°F)
Dewpoint: 24.0°C (75°F) [RH = 94%]
Pressure (altimeter): 29.85 inches Hg (1011.0 mb)
Winds: from the ESE (120 degrees) at 9 MPH (8 knots; 4.2 m/s)
Visibility: 1.99 miles (3.20 km)
Ceiling: 900 feet AGL
Clouds: broken clouds at 900 feet AGL
few clouds at 2500 feet AGL
overcast cloud deck at 9000 feet AGL
Weather: RA  (rain)

METAR text: VGHS 200300Z 09010KT 3200 RA BKN009 FEW025CB OVC090 25/24 Q1010 TEMPO TSRA
Conditions at: VGHS (DHAKA , BD) observed 0300 UTC 20 October 2017
Temperature: 25.0°C (77°F)
Dewpoint: 24.0°C (75°F) [RH = 94%]
Pressure (altimeter): 29.82 inches Hg (1010.0 mb)
Winds: from the E (90 degrees) at 12 MPH (10 knots; 5.2 m/s)
Visibility: 1.99 miles (3.20 km)
Ceiling: 900 feet AGL
Clouds: broken clouds at 900 feet AGL
few clouds at 2500 feet AGL
overcast cloud deck at 9000 feet AGL
Weather: RA  (rain)

METAR text: VGHS 200230Z 09008KT 3200 RA BKN009 FEW025CB OVC090 25/24 Q1010 TEMPO TSRA
Conditions at: VGHS (DHAKA , BD) observed 0230 UTC 20 October 2017
Temperature: 25.0°C (77°F)
Dewpoint: 24.0°C (75°F) [RH = 94%]
Pressure (altimeter): 29.82 inches Hg (1010.0 mb)
Winds: from the E (90 degrees) at 9 MPH (8 knots; 4.2 m/s)
Visibility: 1.99 miles (3.20 km)
Ceiling: 900 feet AGL
Clouds: broken clouds at 900 feet AGL
few clouds at 2500 feet AGL
overcast cloud deck at 9000 feet AGL
Weather: RA  (rain)

METAR text: VGHS 200200Z 10008KT 3500 RA BKN010 FEW025CB OVC100 26/25 Q1010 TEMPO TSRA
Conditions at: VGHS (DHAKA , BD) observed 0200 UTC 20 October 2017
Temperature: 26.0°C (79°F)
Dewpoint: 25.0°C (77°F) [RH = 94%]
Pressure (altimeter): 29.82 inches Hg (1010.0 mb)
Winds: from the E (100 degrees) at 9 MPH (8 knots; 4.2 m/s)
Visibility: 2.17 miles (3.49 km)
Ceiling: 1000 feet AGL
Clouds: broken clouds at 1000 feet AGL
few clouds at 2500 feet AGL
overcast cloud deck at 10000 feet AGL
Weather: RA  (rain)

METAR text: VGHS 200130Z 09012KT 3500 DZ BKN010 FEW025CB OVC100 26/25 Q1009 TEMPO TSRA
Conditions at: VGHS (DHAKA , BD) observed 0130 UTC 20 October 2017
Temperature: 26.0°C (79°F)
Dewpoint: 25.0°C (77°F) [RH = 94%]
Pressure (altimeter): 29.79 inches Hg (1009.0 mb)
Winds: from the E (90 degrees) at 14 MPH (12 knots; 6.2 m/s)
Visibility: 2.17 miles (3.49 km)
Ceiling: 1000 feet AGL
Clouds: broken clouds at 1000 feet AGL
few clouds at 2500 feet AGL
overcast cloud deck at 10000 feet AGL
Weather: DZ  (drizzle)

METAR text: VGHS 200100Z 12010KT 3500 RA BKN009 FEW025CB OVC090 26/25 Q1009 TEMPO TSRA
Conditions at: VGHS (DHAKA , BD) observed 0100 UTC 20 October 2017
Temperature: 26.0°C (79°F)
Dewpoint: 25.0°C (77°F) [RH = 94%]
Pressure (altimeter): 29.79 inches Hg (1009.0 mb)
Winds: from the ESE (120 degrees) at 12 MPH (10 knots; 5.2 m/s)
Visibility: 2.17 miles (3.49 km)
Ceiling: 900 feet AGL
Clouds: broken clouds at 900 feet AGL
few clouds at 2500 feet AGL
overcast cloud deck at 9000 feet AGL
Weather: RA  (rain)

METAR text: VGHS 200030Z 10008KT 3500 RA BKN009 FEW025CB OVC090 26/25 Q1009 TEMPO TSRA
Conditions at: VGHS (DHAKA , BD) observed 0030 UTC 20 October 2017
Temperature: 26.0°C (79°F)
Dewpoint: 25.0°C (77°F) [RH = 94%]
Pressure (altimeter): 29.79 inches Hg (1009.0 mb)
Winds: from the E (100 degrees) at 9 MPH (8 knots; 4.2 m/s)
Visibility: 2.17 miles (3.49 km)
Ceiling: 900 feet AGL
Clouds: broken clouds at 900 feet AGL
few clouds at 2500 feet AGL
overcast cloud deck at 9000 feet AGL
Weather: RA  (rain)

METAR text: VGHS 200000Z 09008KT 3500 DZ BKN009 FEW025CB OVC090 26/24 Q1008 TEMPO TSRA
Conditions at: VGHS (DHAKA , BD) observed 0000 UTC 20 October 2017
Temperature: 26.0°C (79°F)
Dewpoint: 24.0°C (75°F) [RH = 89%]
Pressure (altimeter): 29.76 inches Hg (1008.0 mb)
Winds: from the E (90 degrees) at 9 MPH (8 knots; 4.2 m/s)
Visibility: 2.17 miles (3.49 km)
Ceiling: 900 feet AGL
Clouds: broken clouds at 900 feet AGL
few clouds at 2500 feet AGL
overcast cloud deck at 9000 feet AGL
Weather: DZ  (drizzle)

METAR text: VGHS 192330Z 11006KT 3500 DZ BKN010 FEW025CB BKN100 26/24 Q1008 TEMPO TSRA
Conditions at: VGHS (DHAKA , BD) observed 2330 UTC 19 October 2017
Temperature: 26.0°C (79°F)
Dewpoint: 24.0°C (75°F) [RH = 89%]
Pressure (altimeter): 29.76 inches Hg (1008.0 mb)
Winds: from the ESE (110 degrees) at 7 MPH (6 knots; 3.1 m/s)
Visibility: 2.17 miles (3.49 km)
Ceiling: 1000 feet AGL
Clouds: broken clouds at 1000 feet AGL
few clouds at 2500 feet AGL
broken clouds at 10000 feet AGL
Weather: DZ  (drizzle)

METAR text: VGHS 192300Z 10006KT 3500 DZ BKN010 FEW025CB BKN100 26/24 Q1008 TEMPO TSRA
Conditions at: VGHS (DHAKA , BD) observed 2300 UTC 19 October 2017
Temperature: 26.0°C (79°F)
Dewpoint: 24.0°C (75°F) [RH = 89%]
Pressure (altimeter): 29.76 inches Hg (1008.0 mb)
Winds: from the E (100 degrees) at 7 MPH (6 knots; 3.1 m/s)
Visibility: 2.17 miles (3.49 km)
Ceiling: 1000 feet AGL
Clouds: broken clouds at 1000 feet AGL
few clouds at 2500 feet AGL
broken clouds at 10000 feet AGL
Weather: DZ  (drizzle)

METAR text: VGHS 192230Z 12008KT 3200 RA BKN010 FEW025CB BKN100 26/24 Q1007 TEMPO TSRA
Conditions at: VGHS (DHAKA , BD) observed 2230 UTC 19 October 2017
Temperature: 26.0°C (79°F)
Dewpoint: 24.0°C (75°F) [RH = 89%]
Pressure (altimeter): 29.73 inches Hg (1007.0 mb)
Winds: from the ESE (120 degrees) at 9 MPH (8 knots; 4.2 m/s)
Visibility: 1.99 miles (3.20 km)
Ceiling: 1000 feet AGL
Clouds: broken clouds at 1000 feet AGL
few clouds at 2500 feet AGL
broken clouds at 10000 feet AGL
Weather: RA  (rain)

METAR text: VGHS 192200Z 11010KT 3200 RA BKN010 FEW025CB BKN100 26/24 Q1007 TEMPO TSRA
Conditions at: VGHS (DHAKA , BD) observed 2200 UTC 19 October 2017
Temperature: 26.0°C (79°F)
Dewpoint: 24.0°C (75°F) [RH = 89%]
Pressure (altimeter): 29.73 inches Hg (1007.0 mb)
Winds: from the ESE (110 degrees) at 12 MPH (10 knots; 5.2 m/s)
Visibility: 1.99 miles (3.20 km)
Ceiling: 1000 feet AGL
Clouds: broken clouds at 1000 feet AGL
few clouds at 2500 feet AGL
broken clouds at 10000 feet AGL
Weather: RA  (rain)

METAR text: VGHS 192130Z 10004KT 3500 RA BKN010 FEW025CB BKN100 26/24 Q1008 TEMPO TSRA
Conditions at: VGHS (DHAKA , BD) observed 2130 UTC 19 October 2017
Temperature: 26.0°C (79°F)
Dewpoint: 24.0°C (75°F) [RH = 89%]
Pressure (altimeter): 29.76 inches Hg (1008.0 mb)
Winds: from the E (100 degrees) at 5 MPH (4 knots; 2.1 m/s)
Visibility: 2.17 miles (3.49 km)
Ceiling: 1000 feet AGL
Clouds: broken clouds at 1000 feet AGL
few clouds at 2500 feet AGL
broken clouds at 10000 feet AGL
Weather: RA  (rain)

METAR text: VGHS 192100Z 10006KT 3500 RA BKN010 FEW025CB BKN100 26/24 Q1008 TEMPO TSRA
Conditions at: VGHS (DHAKA , BD) observed 2100 UTC 19 October 2017
Temperature: 26.0°C (79°F)
Dewpoint: 24.0°C (75°F) [RH = 89%]
Pressure (altimeter): 29.76 inches Hg (1008.0 mb)
Winds: from the E (100 degrees) at 7 MPH (6 knots; 3.1 m/s)
Visibility: 2.17 miles (3.49 km)
Ceiling: 1000 feet AGL
Clouds: broken clouds at 1000 feet AGL
few clouds at 2500 feet AGL
broken clouds at 10000 feet AGL
Weather: RA  (rain)